sensor_id;sensor_type;location;lat;lon;timestamp;P1;durP1;ratioP1;P2;durP2;ratioP2
3769;SDS011;1900;48.890;9.190;2023-07-24T00:01:48;13.53;;;8.17;;
3769;SDS011;1900;48.890;9.190;2023-07-24T00:04:13;18.50;;;8.57;;
3769;SDS011;1900;48.890;9.190;2023-07-24T00:06:39;17.57;;;8.63;;
3769;SDS011;1900;48.890;9.190;2023-07-24T00:09:04;12.03;;;6.80;;
3769;SDS011;1900;48.890;9.190;2023-07-24T00:11:30;16.63;;;7.50;;
3769;SDS011;1900;48.890;9.190;2023-07-24T00:13:56;11.80;;;7.83;;
3769;SDS011;1900;48.890;9.190;2023-07-24T00:16:21;14.10;;;8.50;;
3769;SDS011;1900;48.890;9.190;2023-07-24T00:18:47;12.60;;;7.40;;
3769;SDS011;1900;48.890;9.190;2023-07-24T00:21:13;11.50;;;7.80;;
3769;SDS011;1900;48.890;9.190;2023-07-24T00:23:39;11.27;;;7.53;;
3769;SDS011;1900;48.890;9.190;2023-07-24T00:26:04;18.67;;;7.67;;
3769;SDS011;1900;48.890;9.190;2023-07-24T00:28:30;18.10;;;7.60;;
3769;SDS011;1900;48.890;9.190;2023-07-24T00:30:55;14.40;;;7.90;;
3769;SDS011;1900;48.890;9.190;2023-07-24T00:33:21;13.00;;;8.30;;
3769;SDS011;1900;48.890;9.190;2023-07-24T00:35:47;12.57;;;7.93;;
3769;SDS011;1900;48.890;9.190;2023-07-24T00:38:13;12.13;;;7.00;;
3769;SDS011;1900;48.890;9.190;2023-07-24T00:40:39;13.70;;;7.70;;
3769;SDS011;1900;48.890;9.190;2023-07-24T00:43:05;14.07;;;8.03;;
3769;SDS011;1900;48.890;9.190;2023-07-24T00:45:31;14.40;;;8.50;;
3769;SDS011;1900;48.890;9.190;2023-07-24T00:47:58;15.47;;;7.30;;
3769;SDS011;1900;48.890;9.190;2023-07-24T00:50:25;16.50;;;7.70;;
3769;SDS011;1900;48.890;9.190;2023-07-24T00:52:52;14.23;;;8.20;;
3769;SDS011;1900;48.890;9.190;2023-07-24T00:55:18;13.20;;;7.47;;
3769;SDS011;1900;48.890;9.190;2023-07-24T00:57:44;14.43;;;8.67;;
3769;SDS011;1900;48.890;9.190;2023-07-24T01:00:10;17.40;;;8.87;;
3769;SDS011;1900;48.890;9.190;2023-07-24T01:02:36;13.90;;;8.10;;
3769;SDS011;1900;48.890;9.190;2023-07-24T01:05:03;12.10;;;6.80;;
3769;SDS011;1900;48.890;9.190;2023-07-24T01:07:29;12.37;;;8.20;;
3769;SDS011;1900;48.890;9.190;2023-07-24T01:09:55;10.97;;;7.57;;
3769;SDS011;1900;48.890;9.190;2023-07-24T01:12:37;11.10;;;7.43;;
3769;SDS011;1900;48.890;9.190;2023-07-24T01:15:54;13.00;;;7.80;;
3769;SDS011;1900;48.890;9.190;2023-07-24T01:18:08;13.53;;;8.53;;
3769;SDS011;1900;48.890;9.190;2023-07-24T01:20:36;15.90;;;8.40;;
3769;SDS011;1900;48.890;9.190;2023-07-24T01:26:03;12.70;;;7.97;;
3769;SDS011;1900;48.890;9.190;2023-07-24T01:28:31;11.93;;;8.17;;
3769;SDS011;1900;48.890;9.190;2023-07-24T01:30:57;12.30;;;7.43;;
3769;SDS011;1900;48.890;9.190;2023-07-24T01:33:23;17.20;;;9.27;;
3769;SDS011;1900;48.890;9.190;2023-07-24T01:35:51;17.60;;;8.30;;
3769;SDS011;1900;48.890;9.190;2023-07-24T01:38:20;14.63;;;8.23;;
3769;SDS011;1900;48.890;9.190;2023-07-24T01:40:49;15.07;;;9.30;;
3769;SDS011;1900;48.890;9.190;2023-07-24T01:43:19;13.27;;;8.30;;
3769;SDS011;1900;48.890;9.190;2023-07-24T01:45:45;13.17;;;8.90;;
3769;SDS011;1900;48.890;9.190;2023-07-24T01:48:13;13.70;;;8.10;;
3769;SDS011;1900;48.890;9.190;2023-07-24T01:50:39;12.10;;;8.17;;
3769;SDS011;1900;48.890;9.190;2023-07-24T01:53:05;10.60;;;7.20;;
3769;SDS011;1900;48.890;9.190;2023-07-24T01:55:30;13.40;;;8.40;;
3769;SDS011;1900;48.890;9.190;2023-07-24T01:57:56;14.80;;;8.10;;
3769;SDS011;1900;48.890;9.190;2023-07-24T02:00:22;14.23;;;7.83;;
3769;SDS011;1900;48.890;9.190;2023-07-24T02:02:56;15.07;;;7.93;;
3769;SDS011;1900;48.890;9.190;2023-07-24T02:05:22;14.30;;;8.37;;
3769;SDS011;1900;48.890;9.190;2023-07-24T02:07:48;12.97;;;8.00;;
3769;SDS011;1900;48.890;9.190;2023-07-24T02:10:13;13.50;;;8.63;;
3769;SDS011;1900;48.890;9.190;2023-07-24T02:12:39;16.63;;;8.43;;
3769;SDS011;1900;48.890;9.190;2023-07-24T02:15:05;15.67;;;9.20;;
3769;SDS011;1900;48.890;9.190;2023-07-24T02:17:31;13.87;;;7.97;;
3769;SDS011;1900;48.890;9.190;2023-07-24T02:19:57;14.47;;;8.93;;
3769;SDS011;1900;48.890;9.190;2023-07-24T02:22:23;12.60;;;8.80;;
3769;SDS011;1900;48.890;9.190;2023-07-24T02:24:49;13.80;;;8.50;;
3769;SDS011;1900;48.890;9.190;2023-07-24T02:27:25;16.43;;;8.30;;
3769;SDS011;1900;48.890;9.190;2023-07-24T02:29:52;13.73;;;8.60;;
3769;SDS011;1900;48.890;9.190;2023-07-24T02:32:22;17.83;;;8.90;;
3769;SDS011;1900;48.890;9.190;2023-07-24T02:34:49;13.50;;;8.70;;
3769;SDS011;1900;48.890;9.190;2023-07-24T02:37:16;12.60;;;7.90;;
3769;SDS011;1900;48.890;9.190;2023-07-24T02:39:41;12.77;;;8.00;;
3769;SDS011;1900;48.890;9.190;2023-07-24T02:42:07;14.40;;;8.50;;
3769;SDS011;1900;48.890;9.190;2023-07-24T02:44:36;14.17;;;8.83;;
3769;SDS011;1900;48.890;9.190;2023-07-24T02:47:02;12.80;;;7.90;;
3769;SDS011;1900;48.890;9.190;2023-07-24T02:49:28;13.30;;;8.40;;
3769;SDS011;1900;48.890;9.190;2023-07-24T02:51:54;13.20;;;8.00;;
3769;SDS011;1900;48.890;9.190;2023-07-24T02:54:19;14.43;;;7.90;;
3769;SDS011;1900;48.890;9.190;2023-07-24T02:56:45;12.60;;;8.67;;
3769;SDS011;1900;48.890;9.190;2023-07-24T02:59:11;12.37;;;8.20;;
3769;SDS011;1900;48.890;9.190;2023-07-24T03:01:36;13.03;;;8.43;;
3769;SDS011;1900;48.890;9.190;2023-07-24T03:04:02;13.73;;;8.60;;
3769;SDS011;1900;48.890;9.190;2023-07-24T03:06:30;13.00;;;8.33;;
3769;SDS011;1900;48.890;9.190;2023-07-24T03:08:56;22.10;;;9.57;;
3769;SDS011;1900;48.890;9.190;2023-07-24T03:11:23;13.83;;;8.67;;
3769;SDS011;1900;48.890;9.190;2023-07-24T03:13:48;12.60;;;8.90;;
3769;SDS011;1900;48.890;9.190;2023-07-24T03:16:14;16.50;;;9.00;;
3769;SDS011;1900;48.890;9.190;2023-07-24T03:18:42;17.87;;;9.17;;
3769;SDS011;1900;48.890;9.190;2023-07-24T03:21:07;16.07;;;8.13;;
3769;SDS011;1900;48.890;9.190;2023-07-24T03:23:34;12.83;;;8.40;;
3769;SDS011;1900;48.890;9.190;2023-07-24T03:25:59;14.80;;;8.70;;
3769;SDS011;1900;48.890;9.190;2023-07-24T03:28:25;12.40;;;8.60;;
3769;SDS011;1900;48.890;9.190;2023-07-24T03:30:52;12.80;;;8.30;;
3769;SDS011;1900;48.890;9.190;2023-07-24T03:33:18;11.30;;;7.83;;
3769;SDS011;1900;48.890;9.190;2023-07-24T03:35:43;14.13;;;8.53;;
3769;SDS011;1900;48.890;9.190;2023-07-24T03:38:09;11.97;;;8.40;;
3769;SDS011;1900;48.890;9.190;2023-07-24T03:40:35;14.33;;;7.73;;
3769;SDS011;1900;48.890;9.190;2023-07-24T03:43:01;14.37;;;8.07;;
3769;SDS011;1900;48.890;9.190;2023-07-24T03:45:27;15.03;;;8.63;;
3769;SDS011;1900;48.890;9.190;2023-07-24T03:47:53;14.23;;;8.27;;
3769;SDS011;1900;48.890;9.190;2023-07-24T03:50:18;12.10;;;7.30;;
3769;SDS011;1900;48.890;9.190;2023-07-24T03:52:44;12.60;;;8.17;;
3769;SDS011;1900;48.890;9.190;2023-07-24T03:55:10;14.43;;;8.63;;
3769;SDS011;1900;48.890;9.190;2023-07-24T03:57:35;15.30;;;8.30;;
3769;SDS011;1900;48.890;9.190;2023-07-24T04:00:02;12.07;;;7.73;;
3769;SDS011;1900;48.890;9.190;2023-07-24T04:02:37;17.10;;;7.50;;
3769;SDS011;1900;48.890;9.190;2023-07-24T04:05:04;10.40;;;7.50;;
3769;SDS011;1900;48.890;9.190;2023-07-24T04:07:30;18.70;;;8.40;;
3769;SDS011;1900;48.890;9.190;2023-07-24T04:09:56;13.77;;;7.77;;
3769;SDS011;1900;48.890;9.190;2023-07-24T04:12:21;12.93;;;8.00;;
3769;SDS011;1900;48.890;9.190;2023-07-24T04:14:47;14.90;;;8.10;;
3769;SDS011;1900;48.890;9.190;2023-07-24T04:17:14;14.00;;;9.10;;
3769;SDS011;1900;48.890;9.190;2023-07-24T04:19:40;13.43;;;8.77;;
3769;SDS011;1900;48.890;9.190;2023-07-24T04:22:05;11.87;;;8.17;;
3769;SDS011;1900;48.890;9.190;2023-07-24T04:24:31;17.37;;;8.77;;
3769;SDS011;1900;48.890;9.190;2023-07-24T04:26:57;13.23;;;8.33;;
3769;SDS011;1900;48.890;9.190;2023-07-24T04:29:22;14.67;;;8.50;;
3769;SDS011;1900;48.890;9.190;2023-07-24T04:31:50;14.60;;;8.33;;
3769;SDS011;1900;48.890;9.190;2023-07-24T04:34:16;11.37;;;8.07;;
3769;SDS011;1900;48.890;9.190;2023-07-24T04:36:42;14.17;;;8.93;;
3769;SDS011;1900;48.890;9.190;2023-07-24T04:39:07;13.60;;;8.70;;
3769;SDS011;1900;48.890;9.190;2023-07-24T04:41:33;13.30;;;8.70;;
3769;SDS011;1900;48.890;9.190;2023-07-24T04:43:59;13.80;;;8.90;;
3769;SDS011;1900;48.890;9.190;2023-07-24T04:46:24;13.33;;;8.93;;
3769;SDS011;1900;48.890;9.190;2023-07-24T04:48:53;19.00;;;9.50;;
3769;SDS011;1900;48.890;9.190;2023-07-24T04:51:19;14.60;;;9.37;;
3769;SDS011;1900;48.890;9.190;2023-07-24T04:53:44;14.80;;;8.80;;
3769;SDS011;1900;48.890;9.190;2023-07-24T04:56:10;12.07;;;8.33;;
3769;SDS011;1900;48.890;9.190;2023-07-24T04:58:36;15.43;;;9.00;;
3769;SDS011;1900;48.890;9.190;2023-07-24T05:01:05;12.80;;;8.83;;
3769;SDS011;1900;48.890;9.190;2023-07-24T05:03:31;15.50;;;8.80;;
3769;SDS011;1900;48.890;9.190;2023-07-24T05:05:57;12.13;;;8.20;;
3769;SDS011;1900;48.890;9.190;2023-07-24T05:08:23;19.13;;;8.97;;
3769;SDS011;1900;48.890;9.190;2023-07-24T05:10:55;12.60;;;7.80;;
3769;SDS011;1900;48.890;9.190;2023-07-24T05:13:21;14.50;;;9.37;;
3769;SDS011;1900;48.890;9.190;2023-07-24T05:15:47;11.20;;;7.97;;
3769;SDS011;1900;48.890;9.190;2023-07-24T05:18:12;12.60;;;7.77;;
3769;SDS011;1900;48.890;9.190;2023-07-24T05:20:38;12.50;;;7.87;;
3769;SDS011;1900;48.890;9.190;2023-07-24T05:23:07;16.77;;;8.63;;
3769;SDS011;1900;48.890;9.190;2023-07-24T05:25:33;11.90;;;8.03;;
3769;SDS011;1900;48.890;9.190;2023-07-24T05:27:58;14.60;;;8.73;;
3769;SDS011;1900;48.890;9.190;2023-07-24T05:30:24;13.73;;;8.37;;
3769;SDS011;1900;48.890;9.190;2023-07-24T05:32:49;13.60;;;8.70;;
3769;SDS011;1900;48.890;9.190;2023-07-24T05:35:15;14.80;;;8.90;;
3769;SDS011;1900;48.890;9.190;2023-07-24T05:37:41;14.13;;;8.80;;
3769;SDS011;1900;48.890;9.190;2023-07-24T05:40:07;17.07;;;9.97;;
3769;SDS011;1900;48.890;9.190;2023-07-24T05:42:33;18.07;;;9.33;;
3769;SDS011;1900;48.890;9.190;2023-07-24T05:45:03;13.17;;;8.07;;
3769;SDS011;1900;48.890;9.190;2023-07-24T05:47:31;14.20;;;8.07;;
3769;SDS011;1900;48.890;9.190;2023-07-24T05:49:56;12.57;;;8.33;;
3769;SDS011;1900;48.890;9.190;2023-07-24T05:52:22;13.23;;;9.03;;
3769;SDS011;1900;48.890;9.190;2023-07-24T05:54:47;17.97;;;9.40;;
3769;SDS011;1900;48.890;9.190;2023-07-24T05:57:13;16.37;;;8.77;;
3769;SDS011;1900;48.890;9.190;2023-07-24T05:59:39;19.87;;;13.50;;
3769;SDS011;1900;48.890;9.190;2023-07-24T06:02:04;18.00;;;9.73;;
3769;SDS011;1900;48.890;9.190;2023-07-24T06:04:31;15.30;;;9.50;;
3769;SDS011;1900;48.890;9.190;2023-07-24T06:06:56;15.93;;;9.40;;
3769;SDS011;1900;48.890;9.190;2023-07-24T06:09:22;15.73;;;8.53;;
3769;SDS011;1900;48.890;9.190;2023-07-24T06:11:48;15.47;;;8.90;;
3769;SDS011;1900;48.890;9.190;2023-07-24T06:14:13;16.90;;;8.57;;
3769;SDS011;1900;48.890;9.190;2023-07-24T06:16:39;11.93;;;8.83;;
3769;SDS011;1900;48.890;9.190;2023-07-24T06:19:05;16.70;;;9.30;;
3769;SDS011;1900;48.890;9.190;2023-07-24T06:21:31;20.53;;;10.47;;
3769;SDS011;1900;48.890;9.190;2023-07-24T06:23:56;16.93;;;9.13;;
3769;SDS011;1900;48.890;9.190;2023-07-24T06:26:22;15.87;;;9.43;;
3769;SDS011;1900;48.890;9.190;2023-07-24T06:28:48;21.80;;;10.00;;
3769;SDS011;1900;48.890;9.190;2023-07-24T06:31:13;19.70;;;10.57;;
3769;SDS011;1900;48.890;9.190;2023-07-24T06:33:39;14.47;;;9.23;;
3769;SDS011;1900;48.890;9.190;2023-07-24T06:36:08;17.63;;;10.43;;
3769;SDS011;1900;48.890;9.190;2023-07-24T06:38:35;17.87;;;9.40;;
3769;SDS011;1900;48.890;9.190;2023-07-24T06:41:01;16.73;;;9.33;;
3769;SDS011;1900;48.890;9.190;2023-07-24T06:43:26;17.83;;;8.77;;
3769;SDS011;1900;48.890;9.190;2023-07-24T06:45:52;13.80;;;8.47;;
3769;SDS011;1900;48.890;9.190;2023-07-24T06:48:18;21.37;;;9.10;;
3769;SDS011;1900;48.890;9.190;2023-07-24T06:50:44;20.63;;;10.20;;
3769;SDS011;1900;48.890;9.190;2023-07-24T06:53:09;15.50;;;9.13;;
3769;SDS011;1900;48.890;9.190;2023-07-24T06:55:35;20.33;;;9.27;;
3769;SDS011;1900;48.890;9.190;2023-07-24T06:58:01;19.13;;;10.23;;
3769;SDS011;1900;48.890;9.190;2023-07-24T07:00:26;19.20;;;9.07;;
3769;SDS011;1900;48.890;9.190;2023-07-24T07:02:52;21.10;;;9.20;;
3769;SDS011;1900;48.890;9.190;2023-07-24T07:05:18;16.10;;;9.80;;
3769;SDS011;1900;48.890;9.190;2023-07-24T07:07:43;25.80;;;10.00;;
3769;SDS011;1900;48.890;9.190;2023-07-24T07:10:09;20.00;;;9.63;;
3769;SDS011;1900;48.890;9.190;2023-07-24T07:12:35;16.23;;;9.47;;
3769;SDS011;1900;48.890;9.190;2023-07-24T07:15:01;21.20;;;9.23;;
3769;SDS011;1900;48.890;9.190;2023-07-24T07:17:26;17.50;;;9.87;;
3769;SDS011;1900;48.890;9.190;2023-07-24T07:19:53;19.90;;;9.30;;
3769;SDS011;1900;48.890;9.190;2023-07-24T07:22:21;21.63;;;10.20;;
3769;SDS011;1900;48.890;9.190;2023-07-24T07:24:47;17.37;;;8.80;;
3769;SDS011;1900;48.890;9.190;2023-07-24T07:27:13;14.67;;;9.50;;
3769;SDS011;1900;48.890;9.190;2023-07-24T07:29:42;15.30;;;8.70;;
3769;SDS011;1900;48.890;9.190;2023-07-24T07:32:08;17.23;;;8.37;;
3769;SDS011;1900;48.890;9.190;2023-07-24T07:34:34;17.30;;;9.27;;
3769;SDS011;1900;48.890;9.190;2023-07-24T07:37:01;19.93;;;11.40;;
3769;SDS011;1900;48.890;9.190;2023-07-24T07:39:26;15.67;;;8.77;;
3769;SDS011;1900;48.890;9.190;2023-07-24T07:41:52;18.03;;;9.03;;
3769;SDS011;1900;48.890;9.190;2023-07-24T07:44:18;14.43;;;8.30;;
3769;SDS011;1900;48.890;9.190;2023-07-24T07:46:43;20.27;;;8.97;;
3769;SDS011;1900;48.890;9.190;2023-07-24T07:49:09;13.43;;;10.03;;
3769;SDS011;1900;48.890;9.190;2023-07-24T07:51:34;15.70;;;10.10;;
3769;SDS011;1900;48.890;9.190;2023-07-24T07:54:00;16.77;;;9.50;;
3769;SDS011;1900;48.890;9.190;2023-07-24T07:56:26;18.67;;;9.77;;
3769;SDS011;1900;48.890;9.190;2023-07-24T07:58:51;15.47;;;9.93;;
3769;SDS011;1900;48.890;9.190;2023-07-24T08:01:17;16.20;;;8.47;;
3769;SDS011;1900;48.890;9.190;2023-07-24T08:03:43;19.37;;;9.00;;
3769;SDS011;1900;48.890;9.190;2023-07-24T08:06:08;12.90;;;8.67;;
3769;SDS011;1900;48.890;9.190;2023-07-24T08:08:35;23.53;;;9.30;;
3769;SDS011;1900;48.890;9.190;2023-07-24T08:11:04;15.10;;;9.37;;
3769;SDS011;1900;48.890;9.190;2023-07-24T08:13:31;18.53;;;10.70;;
3769;SDS011;1900;48.890;9.190;2023-07-24T08:15:57;16.70;;;8.70;;
3769;SDS011;1900;48.890;9.190;2023-07-24T08:18:24;12.47;;;8.87;;
3769;SDS011;1900;48.890;9.190;2023-07-24T08:20:50;17.70;;;9.17;;
3769;SDS011;1900;48.890;9.190;2023-07-24T08:23:16;13.07;;;8.90;;
3769;SDS011;1900;48.890;9.190;2023-07-24T08:25:51;12.73;;;9.23;;
3769;SDS011;1900;48.890;9.190;2023-07-24T08:28:20;14.90;;;8.47;;
3769;SDS011;1900;48.890;9.190;2023-07-24T08:30:55;13.97;;;8.70;;
3769;SDS011;1900;48.890;9.190;2023-07-24T08:33:22;14.70;;;8.50;;
3769;SDS011;1900;48.890;9.190;2023-07-24T08:35:47;16.50;;;9.40;;
3769;SDS011;1900;48.890;9.190;2023-07-24T08:38:23;13.70;;;8.07;;
3769;SDS011;1900;48.890;9.190;2023-07-24T08:40:59;15.00;;;8.90;;
3769;SDS011;1900;48.890;9.190;2023-07-24T08:43:35;15.47;;;9.27;;
3769;SDS011;1900;48.890;9.190;2023-07-24T08:46:02;15.83;;;9.50;;
3769;SDS011;1900;48.890;9.190;2023-07-24T08:48:31;16.30;;;9.00;;
3769;SDS011;1900;48.890;9.190;2023-07-24T08:51:08;13.83;;;8.57;;
3769;SDS011;1900;48.890;9.190;2023-07-24T08:53:36;14.97;;;8.63;;
3769;SDS011;1900;48.890;9.190;2023-07-24T08:56:03;15.97;;;9.43;;
3769;SDS011;1900;48.890;9.190;2023-07-24T08:58:30;11.97;;;7.97;;
3769;SDS011;1900;48.890;9.190;2023-07-24T09:00:57;21.50;;;8.93;;
3769;SDS011;1900;48.890;9.190;2023-07-24T09:03:23;16.70;;;8.83;;
3769;SDS011;1900;48.890;9.190;2023-07-24T09:05:49;16.63;;;9.13;;
3769;SDS011;1900;48.890;9.190;2023-07-24T09:08:15;13.50;;;8.03;;
3769;SDS011;1900;48.890;9.190;2023-07-24T09:10:41;10.73;;;7.80;;
3769;SDS011;1900;48.890;9.190;2023-07-24T09:13:07;16.00;;;8.60;;
3769;SDS011;1900;48.890;9.190;2023-07-24T09:15:39;12.17;;;9.00;;
3769;SDS011;1900;48.890;9.190;2023-07-24T09:18:06;11.80;;;7.30;;
3769;SDS011;1900;48.890;9.190;2023-07-24T09:20:37;21.63;;;9.43;;
3769;SDS011;1900;48.890;9.190;2023-07-24T09:23:05;17.27;;;9.57;;
3769;SDS011;1900;48.890;9.190;2023-07-24T09:25:30;14.93;;;9.23;;
3769;SDS011;1900;48.890;9.190;2023-07-24T09:27:57;16.27;;;9.60;;
3769;SDS011;1900;48.890;9.190;2023-07-24T09:30:23;16.33;;;8.70;;
3769;SDS011;1900;48.890;9.190;2023-07-24T09:32:55;15.43;;;8.63;;
3769;SDS011;1900;48.890;9.190;2023-07-24T09:35:21;11.57;;;7.33;;
3769;SDS011;1900;48.890;9.190;2023-07-24T09:38:03;13.13;;;8.33;;
3769;SDS011;1900;48.890;9.190;2023-07-24T09:40:43;15.07;;;8.03;;
3769;SDS011;1900;48.890;9.190;2023-07-24T09:43:14;15.53;;;8.63;;
3769;SDS011;1900;48.890;9.190;2023-07-24T09:45:44;14.30;;;8.50;;
3769;SDS011;1900;48.890;9.190;2023-07-24T09:48:11;16.20;;;8.53;;
3769;SDS011;1900;48.890;9.190;2023-07-24T09:50:47;14.83;;;9.87;;
3769;SDS011;1900;48.890;9.190;2023-07-24T09:53:20;12.40;;;8.50;;
3769;SDS011;1900;48.890;9.190;2023-07-24T09:58:22;15.33;;;8.23;;
3769;SDS011;1900;48.890;9.190;2023-07-24T10:00:49;15.20;;;8.63;;
3769;SDS011;1900;48.890;9.190;2023-07-24T10:03:16;16.13;;;8.03;;
3769;SDS011;1900;48.890;9.190;2023-07-24T10:05:44;13.43;;;8.30;;
3769;SDS011;1900;48.890;9.190;2023-07-24T10:08:10;13.00;;;7.93;;
3769;SDS011;1900;48.890;9.190;2023-07-24T10:10:36;15.87;;;8.07;;
3769;SDS011;1900;48.890;9.190;2023-07-24T10:13:03;11.87;;;7.50;;
3769;SDS011;1900;48.890;9.190;2023-07-24T10:15:35;14.00;;;7.80;;
3769;SDS011;1900;48.890;9.190;2023-07-24T10:18:03;12.67;;;8.00;;
3769;SDS011;1900;48.890;9.190;2023-07-24T10:20:34;11.90;;;7.33;;
3769;SDS011;1900;48.890;9.190;2023-07-24T10:23:01;12.30;;;7.30;;
3769;SDS011;1900;48.890;9.190;2023-07-24T10:25:29;11.80;;;7.60;;
3769;SDS011;1900;48.890;9.190;2023-07-24T10:28:00;10.33;;;7.40;;
3769;SDS011;1900;48.890;9.190;2023-07-24T10:30:36;10.40;;;7.20;;
3769;SDS011;1900;48.890;9.190;2023-07-24T10:33:05;11.43;;;7.40;;
3769;SDS011;1900;48.890;9.190;2023-07-24T10:35:42;14.17;;;7.93;;
3769;SDS011;1900;48.890;9.190;2023-07-24T10:38:16;10.07;;;7.70;;
3769;SDS011;1900;48.890;9.190;2023-07-24T10:40:45;11.13;;;6.50;;
3769;SDS011;1900;48.890;9.190;2023-07-24T10:43:14;11.63;;;7.50;;
3769;SDS011;1900;48.890;9.190;2023-07-24T10:48:19;8.43;;;5.90;;
3769;SDS011;1900;48.890;9.190;2023-07-24T10:50:46;11.23;;;6.30;;
3769;SDS011;1900;48.890;9.190;2023-07-24T10:53:14;9.37;;;5.97;;
3769;SDS011;1900;48.890;9.190;2023-07-24T10:55:42;9.57;;;6.43;;
3769;SDS011;1900;48.890;9.190;2023-07-24T10:58:08;10.70;;;7.00;;
3769;SDS011;1900;48.890;9.190;2023-07-24T11:00:34;10.50;;;6.50;;
3769;SDS011;1900;48.890;9.190;2023-07-24T11:03:00;12.10;;;6.50;;
3769;SDS011;1900;48.890;9.190;2023-07-24T11:05:26;13.73;;;7.50;;
3769;SDS011;1900;48.890;9.190;2023-07-24T11:07:52;13.53;;;7.13;;
3769;SDS011;1900;48.890;9.190;2023-07-24T11:10:21;10.90;;;6.00;;
3769;SDS011;1900;48.890;9.190;2023-07-24T11:12:48;13.43;;;6.73;;
3769;SDS011;1900;48.890;9.190;2023-07-24T11:15:15;11.70;;;6.87;;
3769;SDS011;1900;48.890;9.190;2023-07-24T11:17:41;13.97;;;7.20;;
3769;SDS011;1900;48.890;9.190;2023-07-24T11:22:38;18.03;;;6.70;;
3769;SDS011;1900;48.890;9.190;2023-07-24T11:25:09;18.97;;;7.40;;
3769;SDS011;1900;48.890;9.190;2023-07-24T11:27:42;12.00;;;7.50;;
3769;SDS011;1900;48.890;9.190;2023-07-24T11:30:12;12.57;;;7.97;;
3769;SDS011;1900;48.890;9.190;2023-07-24T11:32:44;12.47;;;7.20;;
3769;SDS011;1900;48.890;9.190;2023-07-24T11:35:10;11.03;;;6.93;;
3769;SDS011;1900;48.890;9.190;2023-07-24T11:37:36;10.50;;;7.60;;
3769;SDS011;1900;48.890;9.190;2023-07-24T11:40:02;14.63;;;8.03;;
3769;SDS011;1900;48.890;9.190;2023-07-24T11:42:53;12.50;;;7.43;;
3769;SDS011;1900;48.890;9.190;2023-07-24T11:45:19;12.80;;;7.17;;
3769;SDS011;1900;48.890;9.190;2023-07-24T11:47:48;10.43;;;6.60;;
3769;SDS011;1900;48.890;9.190;2023-07-24T11:50:15;12.47;;;7.57;;
3769;SDS011;1900;48.890;9.190;2023-07-24T11:52:45;11.70;;;6.83;;
3769;SDS011;1900;48.890;9.190;2023-07-24T11:55:13;10.67;;;6.43;;
3769;SDS011;1900;48.890;9.190;2023-07-24T11:57:40;9.23;;;6.03;;
3769;SDS011;1900;48.890;9.190;2023-07-24T12:00:17;11.40;;;7.50;;
3769;SDS011;1900;48.890;9.190;2023-07-24T12:02:44;11.43;;;7.03;;
3769;SDS011;1900;48.890;9.190;2023-07-24T12:05:10;11.20;;;7.10;;
3769;SDS011;1900;48.890;9.190;2023-07-24T12:07:36;10.47;;;6.53;;
3769;SDS011;1900;48.890;9.190;2023-07-24T12:10:02;8.80;;;6.17;;
3769;SDS011;1900;48.890;9.190;2023-07-24T12:12:36;11.03;;;6.57;;
3769;SDS011;1900;48.890;9.190;2023-07-24T12:15:07;9.07;;;6.10;;
3769;SDS011;1900;48.890;9.190;2023-07-24T12:17:33;9.53;;;5.73;;
3769;SDS011;1900;48.890;9.190;2023-07-24T12:19:59;9.67;;;5.10;;
3769;SDS011;1900;48.890;9.190;2023-07-24T12:22:25;12.07;;;6.50;;
3769;SDS011;1900;48.890;9.190;2023-07-24T12:24:50;10.93;;;6.37;;
3769;SDS011;1900;48.890;9.190;2023-07-24T12:27:16;14.20;;;6.70;;
3769;SDS011;1900;48.890;9.190;2023-07-24T12:29:42;8.83;;;6.17;;
3769;SDS011;1900;48.890;9.190;2023-07-24T12:32:07;9.33;;;5.60;;
3769;SDS011;1900;48.890;9.190;2023-07-24T12:34:33;10.47;;;6.50;;
3769;SDS011;1900;48.890;9.190;2023-07-24T12:36:59;9.90;;;6.57;;
3769;SDS011;1900;48.890;9.190;2023-07-24T12:39:24;8.83;;;6.30;;
3769;SDS011;1900;48.890;9.190;2023-07-24T12:41:50;8.83;;;5.73;;
3769;SDS011;1900;48.890;9.190;2023-07-24T12:44:16;12.17;;;6.47;;
3769;SDS011;1900;48.890;9.190;2023-07-24T12:46:41;9.83;;;6.80;;
3769;SDS011;1900;48.890;9.190;2023-07-24T12:49:07;11.80;;;7.10;;
3769;SDS011;1900;48.890;9.190;2023-07-24T12:51:33;10.30;;;5.60;;
3769;SDS011;1900;48.890;9.190;2023-07-24T12:53:58;9.47;;;6.27;;
3769;SDS011;1900;48.890;9.190;2023-07-24T12:56:24;8.00;;;5.67;;
3769;SDS011;1900;48.890;9.190;2023-07-24T12:58:50;10.13;;;6.30;;
3769;SDS011;1900;48.890;9.190;2023-07-24T13:01:16;13.40;;;6.40;;
3769;SDS011;1900;48.890;9.190;2023-07-24T13:03:41;9.93;;;6.23;;
3769;SDS011;1900;48.890;9.190;2023-07-24T13:06:07;7.47;;;5.50;;
3769;SDS011;1900;48.890;9.190;2023-07-24T13:08:33;9.87;;;5.90;;
3769;SDS011;1900;48.890;9.190;2023-07-24T13:10:58;10.40;;;5.93;;
3769;SDS011;1900;48.890;9.190;2023-07-24T13:13:24;9.17;;;6.20;;
3769;SDS011;1900;48.890;9.190;2023-07-24T13:15:50;9.83;;;6.10;;
3769;SDS011;1900;48.890;9.190;2023-07-24T13:18:16;9.83;;;5.80;;
3769;SDS011;1900;48.890;9.190;2023-07-24T13:20:45;9.90;;;6.70;;
3769;SDS011;1900;48.890;9.190;2023-07-24T13:23:11;8.40;;;6.47;;
3769;SDS011;1900;48.890;9.190;2023-07-24T13:25:37;10.03;;;6.37;;
3769;SDS011;1900;48.890;9.190;2023-07-24T13:28:02;8.90;;;6.37;;
3769;SDS011;1900;48.890;9.190;2023-07-24T13:30:31;8.73;;;6.40;;
3769;SDS011;1900;48.890;9.190;2023-07-24T13:32:57;8.17;;;6.50;;
3769;SDS011;1900;48.890;9.190;2023-07-24T13:35:22;11.93;;;7.00;;
3769;SDS011;1900;48.890;9.190;2023-07-24T13:37:48;10.70;;;6.73;;
3769;SDS011;1900;48.890;9.190;2023-07-24T13:40:14;10.20;;;6.20;;
3769;SDS011;1900;48.890;9.190;2023-07-24T13:42:40;11.27;;;6.80;;
3769;SDS011;1900;48.890;9.190;2023-07-24T13:45:06;13.33;;;8.13;;
3769;SDS011;1900;48.890;9.190;2023-07-24T13:47:32;14.63;;;7.63;;
3769;SDS011;1900;48.890;9.190;2023-07-24T13:49:58;11.00;;;6.83;;
3769;SDS011;1900;48.890;9.190;2023-07-24T13:52:25;10.70;;;6.77;;
3769;SDS011;1900;48.890;9.190;2023-07-24T13:54:50;9.20;;;6.83;;
3769;SDS011;1900;48.890;9.190;2023-07-24T13:57:16;10.80;;;6.70;;
3769;SDS011;1900;48.890;9.190;2023-07-24T13:59:42;11.27;;;6.23;;
3769;SDS011;1900;48.890;9.190;2023-07-24T14:02:07;9.20;;;7.03;;
3769;SDS011;1900;48.890;9.190;2023-07-24T14:04:33;17.97;;;10.10;;
3769;SDS011;1900;48.890;9.190;2023-07-24T14:06:58;11.93;;;6.63;;
3769;SDS011;1900;48.890;9.190;2023-07-24T14:09:24;11.30;;;7.10;;
3769;SDS011;1900;48.890;9.190;2023-07-24T14:11:50;12.47;;;7.70;;
3769;SDS011;1900;48.890;9.190;2023-07-24T14:14:17;10.47;;;7.00;;
3769;SDS011;1900;48.890;9.190;2023-07-24T14:16:43;12.07;;;6.70;;
3769;SDS011;1900;48.890;9.190;2023-07-24T14:19:09;13.40;;;7.37;;
3769;SDS011;1900;48.890;9.190;2023-07-24T14:21:34;10.47;;;6.70;;
3769;SDS011;1900;48.890;9.190;2023-07-24T14:24:00;9.40;;;5.87;;
3769;SDS011;1900;48.890;9.190;2023-07-24T14:26:26;8.63;;;6.23;;
3769;SDS011;1900;48.890;9.190;2023-07-24T14:28:52;9.67;;;6.83;;
3769;SDS011;1900;48.890;9.190;2023-07-24T14:31:17;9.33;;;6.23;;
3769;SDS011;1900;48.890;9.190;2023-07-24T14:33:43;12.03;;;6.57;;
3769;SDS011;1900;48.890;9.190;2023-07-24T14:36:09;11.40;;;7.17;;
3769;SDS011;1900;48.890;9.190;2023-07-24T14:38:34;10.07;;;5.50;;
3769;SDS011;1900;48.890;9.190;2023-07-24T14:41:00;13.57;;;6.77;;
3769;SDS011;1900;48.890;9.190;2023-07-24T14:43:26;8.63;;;6.57;;
3769;SDS011;1900;48.890;9.190;2023-07-24T14:45:51;12.23;;;6.13;;
3769;SDS011;1900;48.890;9.190;2023-07-24T14:48:17;7.27;;;4.97;;
3769;SDS011;1900;48.890;9.190;2023-07-24T14:50:43;7.23;;;5.40;;
3769;SDS011;1900;48.890;9.190;2023-07-24T14:53:08;6.97;;;5.20;;
3769;SDS011;1900;48.890;9.190;2023-07-24T14:55:34;10.47;;;5.70;;
3769;SDS011;1900;48.890;9.190;2023-07-24T14:57:59;7.13;;;4.87;;
3769;SDS011;1900;48.890;9.190;2023-07-24T15:00:25;8.53;;;5.27;;
3769;SDS011;1900;48.890;9.190;2023-07-24T15:02:51;6.53;;;5.00;;
3769;SDS011;1900;48.890;9.190;2023-07-24T15:05:17;9.10;;;4.87;;
3769;SDS011;1900;48.890;9.190;2023-07-24T15:07:42;6.53;;;4.87;;
3769;SDS011;1900;48.890;9.190;2023-07-24T15:10:08;6.43;;;4.40;;
3769;SDS011;1900;48.890;9.190;2023-07-24T15:12:34;6.27;;;4.90;;